Main page
METAR-TAF:

METAR-TAF

Airports :

Pyongyang Sunan International Airport

Pyongyang, North Korea

latitude: 39-02N, longitude: 125-47E, elevation: 36 m

METAR: missing

Time: 21:26 (12:26 UTC)

Forecast

The report was made 8 hours and 6 minutes ago, at 04:20 UTC
Forecast valid from 28 at 06 UTC to 29 at 06 UTC
Wind 6 kt from the Southwest
Visibility: 6000 m
Overcast at a height of 2700 ft
Temporary
from 28 at 05 UTC to 28 at 11 UTC
Visibility: 6000 m
light rain
Becoming
from 28 at 18 UTC to 28 at 20 UTC
Wind 6 kt from the Northwest
Visibility 10 km or more
no clouds below 1500 m and no cumulonimbus

TAF: ZKPY 280420Z 2806/2906 23003MPS 6000 OVC027 TX05/2806Z TN00/2822Z TEMPO 2805/2811 6000 -RA BECMG 2818/2820 32003MPS CAVOK

Weather observations and forecasts of more than 4000 airports (METAR and TAF reports).

The available stations are represented by yellow and red dots on the map.

Hover mouse over dot to see the name of the station.

Then click to see weather observations and forecasts.

To change the map : click on the green buttons with a black cross to zoom in, on the green button with a dash to zoom out, or on the green arrows for adjacent maps.


METAR-TAF: